createdAt,value
2022-10-18T00:03:19.893Z,22.70
2022-10-18T00:08:25.561Z,22.70
2022-10-18T00:13:29.260Z,22.60
2022-10-18T00:18:33.086Z,22.60
2022-10-18T00:23:38.644Z,22.70
2022-10-18T00:28:43.127Z,22.70
2022-10-18T00:33:51.423Z,22.70
2022-10-18T00:38:56.439Z,22.70
2022-10-18T00:44:03.336Z,22.70
2022-10-18T00:49:17.103Z,22.70
2022-10-18T00:54:23.174Z,22.70
2022-10-18T00:59:27.804Z,22.70
2022-10-18T01:04:31.521Z,22.70
2022-10-18T01:09:47.129Z,22.70
2022-10-18T01:15:03.885Z,22.70
2022-10-18T01:20:50.304Z,22.70
2022-10-18T01:26:08.604Z,22.70
2022-10-18T01:31:16.961Z,22.70
2022-10-18T01:36:27.360Z,22.70
2022-10-18T01:41:31.514Z,22.70
2022-10-18T01:46:38.030Z,22.70
2022-10-18T01:51:41.487Z,22.70
2022-10-18T01:56:53.631Z,22.70
2022-10-18T02:02:11.093Z,22.70
2022-10-18T02:07:33.423Z,22.70
2022-10-18T02:12:43.094Z,22.70
2022-10-18T02:17:48.120Z,22.70
2022-10-18T02:22:55.399Z,22.70
2022-10-18T02:27:59.666Z,22.70
2022-10-18T02:33:14.355Z,22.70
2022-10-18T02:38:20.899Z,22.70
2022-10-18T02:43:25.975Z,22.70
2022-10-18T02:48:31.232Z,22.70
2022-10-18T02:53:34.741Z,22.70
2022-10-18T02:58:38.238Z,22.70
2022-10-18T03:03:43.123Z,22.70
2022-10-18T03:08:46.831Z,22.70
2022-10-18T03:13:51.134Z,22.70
2022-10-18T03:18:55.977Z,22.60
2022-10-18T03:23:59.789Z,22.60
2022-10-18T03:29:03.423Z,22.70
2022-10-18T03:34:08.344Z,22.70
2022-10-18T03:39:13.724Z,22.70
2022-10-18T03:44:17.177Z,22.70
2022-10-18T03:49:22.191Z,22.60
2022-10-18T03:54:25.733Z,22.70
2022-10-18T03:59:29.251Z,22.70
2022-10-18T04:04:34.102Z,22.70
2022-10-18T04:09:37.609Z,22.70
2022-10-18T04:14:41.105Z,22.70
2022-10-18T04:19:46.430Z,22.70
2022-10-18T04:24:50.146Z,22.70
2022-10-18T04:29:53.692Z,22.70
2022-10-18T04:34:58.545Z,22.60
2022-10-18T04:40:02.029Z,22.60
2022-10-18T04:45:06.811Z,22.60
2022-10-18T04:50:11.999Z,22.60
2022-10-18T04:55:15.458Z,22.60
2022-10-18T05:00:19.259Z,22.60
2022-10-18T05:05:27.052Z,22.60
2022-10-18T05:10:36.708Z,22.70
2022-10-18T05:15:40.201Z,22.60
2022-10-18T05:20:45.102Z,22.60
2022-10-18T05:25:48.716Z,22.60
2022-10-18T05:30:52.231Z,22.60
2022-10-18T05:35:57.542Z,22.60
2022-10-18T05:41:05.393Z,22.70
2022-10-18T05:46:14.571Z,22.70
2022-10-18T05:51:20.217Z,22.70
2022-10-18T05:56:23.749Z,22.80
2022-10-18T06:01:27.343Z,22.80
2022-10-18T06:06:33.522Z,22.80
2022-10-18T06:11:38.508Z,22.90
2022-10-18T06:16:41.931Z,22.90
2022-10-18T06:21:46.855Z,23.00
2022-10-18T06:26:50.527Z,23.00
2022-10-18T06:31:53.970Z,23.00
2022-10-18T06:36:58.971Z,23.00
2022-10-18T06:42:02.413Z,23.10
2022-10-18T06:47:11.303Z,23.10
2022-10-18T06:52:18.718Z,23.10
2022-10-18T06:57:22.622Z,23.10
2022-10-18T07:02:26.032Z,23.10
2022-10-18T07:07:32.606Z,23.10
2022-10-18T07:12:36.504Z,23.10
2022-10-18T07:17:39.993Z,23.10
2022-10-18T07:22:44.809Z,23.10
2022-10-18T07:27:48.305Z,23.20
2022-10-18T07:32:52.938Z,23.10
2022-10-18T07:37:57.806Z,23.10
2022-10-18T07:43:04.530Z,23.10
2022-10-18T07:48:08.669Z,23.10
2022-10-18T07:53:13.491Z,23.10
2022-10-18T07:58:16.905Z,23.10
2022-10-18T08:03:20.832Z,23.10
2022-10-18T08:08:27.057Z,23.10
2022-10-18T08:13:31.154Z,23.00
2022-10-18T08:18:35.614Z,22.90
2022-10-18T08:23:41.717Z,22.80
2022-10-18T08:28:53.714Z,22.80
2022-10-18T08:34:02.062Z,22.80
2022-10-18T08:39:06.892Z,22.80
2022-10-18T08:44:19.301Z,22.70
2022-10-18T08:49:29.560Z,22.70
2022-10-18T08:54:49.760Z,22.70
2022-10-18T08:59:53.730Z,22.70
2022-10-18T09:05:09.698Z,22.70
2022-10-18T09:10:30.765Z,22.70
2022-10-18T09:15:48.673Z,22.60
2022-10-18T09:20:59.367Z,22.60
2022-10-18T09:26:15.054Z,22.60
2022-10-18T09:31:25.793Z,22.70
2022-10-18T09:36:35.715Z,22.70
2022-10-18T09:41:48.993Z,22.80
2022-10-18T09:47:01.360Z,22.80
2022-10-18T09:52:16.755Z,22.80
2022-10-18T09:57:29.416Z,22.80
2022-10-18T10:02:33.588Z,22.80
2022-10-18T10:07:47.390Z,22.80
2022-10-18T10:13:07.968Z,22.80
2022-10-18T10:18:22.362Z,22.80
2022-10-18T10:23:30.779Z,22.80
2022-10-18T10:28:46.425Z,22.80
2022-10-18T10:34:00.867Z,22.80
2022-10-18T10:39:08.440Z,22.70
2022-10-18T10:44:18.742Z,22.70
2022-10-18T10:49:39.809Z,22.70
2022-10-18T10:54:51.347Z,22.70
2022-10-18T11:00:00.733Z,22.70
2022-10-18T11:05:25.475Z,22.60
2022-10-18T11:10:33.145Z,22.60
2022-10-18T11:15:47.598Z,22.60
2022-10-18T11:20:59.715Z,22.60
2022-10-18T11:26:45.532Z,22.60
2022-10-18T11:32:07.138Z,22.60
2022-10-18T11:37:33.415Z,22.60
2022-10-18T11:42:48.494Z,22.60
2022-10-18T11:48:04.034Z,22.60
2022-10-18T11:53:20.748Z,22.70
2022-10-18T11:58:52.480Z,22.70
2022-10-18T12:04:08.552Z,22.60
2022-10-18T12:09:25.044Z,22.60
2022-10-18T12:14:34.507Z,22.60
2022-10-18T12:19:39.975Z,22.60
2022-10-18T12:24:44.189Z,22.60
2022-10-18T12:29:57.671Z,22.60
2022-10-18T12:35:11.042Z,22.60
2022-10-18T12:40:21.731Z,22.60
2022-10-18T12:45:34.982Z,22.60
2022-10-18T12:50:43.464Z,22.60
2022-10-18T12:55:51.383Z,22.60
2022-10-18T13:01:08.306Z,22.60
2022-10-18T13:06:13.262Z,22.60
2022-10-18T13:11:36.353Z,22.60
2022-10-18T13:16:49.007Z,22.60
2022-10-18T13:22:20.924Z,22.60
2022-10-18T13:27:42.989Z,22.60
2022-10-18T13:32:58.084Z,22.60
2022-10-18T13:38:03.942Z,22.60
2022-10-18T13:44:24.532Z,22.70
2022-10-18T13:49:41.213Z,22.70
2022-10-18T13:55:07.536Z,22.70
2022-10-18T14:00:49.243Z,22.70
2022-10-18T14:05:55.351Z,22.80
2022-10-18T14:11:07.655Z,22.80
2022-10-18T14:16:31.777Z,22.80
2022-10-18T14:21:39.922Z,22.80
2022-10-18T14:26:45.133Z,22.80
2022-10-18T14:31:56.544Z,22.90
2022-10-18T14:37:00.290Z,22.90
2022-10-18T14:42:05.294Z,22.90
2022-10-18T14:47:18.300Z,23.00
2022-10-18T14:52:29.525Z,22.90
2022-10-18T14:57:39.300Z,23.00
2022-10-18T15:02:43.083Z,23.00
2022-10-18T15:07:46.949Z,23.00
2022-10-18T15:13:08.613Z,23.00
2022-10-18T15:18:25.184Z,23.00
2022-10-18T15:23:31.359Z,23.10
2022-10-18T15:28:49.520Z,23.10
2022-10-18T15:35:13.612Z,23.00
2022-10-18T15:40:35.475Z,23.00
2022-10-18T15:51:01.985Z,23.10
2022-10-18T15:56:09.337Z,23.10
2022-10-18T16:01:19.993Z,23.10
2022-10-18T16:06:23.708Z,23.10
2022-10-18T16:11:28.326Z,23.00
2022-10-18T16:16:33.436Z,23.10
2022-10-18T16:21:40.238Z,23.00
2022-10-18T16:26:43.892Z,23.00
2022-10-18T16:31:50.913Z,23.00
2022-10-18T16:36:55.547Z,23.00
2022-10-18T16:41:59.367Z,23.00
2022-10-18T16:47:05.016Z,22.90
2022-10-18T16:52:08.755Z,22.90
2022-10-18T16:57:13.566Z,22.90
2022-10-18T17:02:19.067Z,22.80
2022-10-18T17:07:26.527Z,22.80
2022-10-18T17:12:30.578Z,22.80
2022-10-18T17:17:36.359Z,22.80
2022-10-18T17:22:39.928Z,22.80
2022-10-18T17:27:43.804Z,22.80
2022-10-18T17:32:48.777Z,22.80
2022-10-18T17:37:53.483Z,22.80
2022-10-18T17:42:57.073Z,22.80
2022-10-18T17:48:02.594Z,22.80
2022-10-18T17:53:06.190Z,22.80
2022-10-18T17:58:10.151Z,22.70
2022-10-18T18:03:15.001Z,22.80
2022-10-18T18:08:18.642Z,22.80
2022-10-18T18:13:22.182Z,22.70
2022-10-18T18:18:27.594Z,22.70
2022-10-18T18:23:31.228Z,22.70
2022-10-18T18:28:36.816Z,22.70
2022-10-18T18:33:42.243Z,22.70
2022-10-18T18:38:46.395Z,22.70
2022-10-18T18:43:55.883Z,22.70
2022-10-18T18:49:02.189Z,22.60
2022-10-18T18:54:08.248Z,22.60
2022-10-18T18:59:15.149Z,22.60
2022-10-18T19:04:20.051Z,22.60
2022-10-18T19:09:23.999Z,22.60
2022-10-18T19:14:29.065Z,22.60
2022-10-18T19:19:34.199Z,22.60
2022-10-18T19:24:38.098Z,22.60
2022-10-18T19:29:44.035Z,22.60
2022-10-18T19:34:49.094Z,22.60
2022-10-18T19:39:52.534Z,22.60
2022-10-18T19:44:56.266Z,22.60
2022-10-18T19:50:01.169Z,22.60
2022-10-18T19:55:05.981Z,22.60
2022-10-18T20:00:19.641Z,22.60
2022-10-18T20:05:25.320Z,22.60
2022-10-18T20:10:28.941Z,22.60
2022-10-18T20:15:33.270Z,22.60
2022-10-18T20:20:38.332Z,22.60
2022-10-18T20:25:42.056Z,22.60
2022-10-18T20:30:45.534Z,22.60
2022-10-18T20:35:52.303Z,22.60
2022-10-18T20:40:55.982Z,22.60
2022-10-18T20:46:00.860Z,22.60
2022-10-18T20:51:08.501Z,22.60
2022-10-18T20:56:14.153Z,22.50
2022-10-18T21:01:20.878Z,22.50
2022-10-18T21:06:29.837Z,22.50
2022-10-18T21:11:38.473Z,22.50
2022-10-18T21:16:44.004Z,22.50
2022-10-18T21:21:53.790Z,22.50
2022-10-18T21:26:58.170Z,22.60
2022-10-18T21:32:02.747Z,22.70
2022-10-18T21:37:07.784Z,22.80
2022-10-18T21:42:12.340Z,22.90
2022-10-18T21:47:16.104Z,22.90
2022-10-18T21:52:21.066Z,22.90
2022-10-18T21:57:24.816Z,22.90
2022-10-18T22:02:28.771Z,22.90
2022-10-18T22:07:34.001Z,22.90
2022-10-18T22:12:37.897Z,22.90
2022-10-18T22:17:41.679Z,22.90
2022-10-18T22:22:46.722Z,22.90
2022-10-18T22:27:50.310Z,22.90
2022-10-18T22:32:53.915Z,22.90
2022-10-18T22:37:58.868Z,22.90
2022-10-18T22:43:02.458Z,23.00
2022-10-18T22:48:07.129Z,23.00
2022-10-18T22:53:12.115Z,22.90
2022-10-18T22:58:15.901Z,23.00
2022-10-18T23:03:20.711Z,23.00
2022-10-18T23:08:26.157Z,23.00
2022-10-18T23:13:29.901Z,23.00
2022-10-18T23:18:34.402Z,23.00
2022-10-18T23:23:44.509Z,23.00
2022-10-18T23:28:50.724Z,23.00
2022-10-18T23:33:57.754Z,23.10
2022-10-18T23:39:03.460Z,23.10
2022-10-18T23:44:09.059Z,23.10
2022-10-18T23:49:12.761Z,23.10
2022-10-18T23:54:17.871Z,23.00
2022-10-18T23:59:21.713Z,23.00
